Time;durP1;ratioP1;P1;durP2;ratioP2;P2;SDS_P1;SDS_P2;PMS_P1;PMS_P2;Temp;Humidity;BMP_temperature;BMP_pressure;BME280_temperature;BME280_humidity;BME280_pressure;Samples;Min_cycle;Max_cycle;Signal;HPM_P1;HPM_P2
2022/04/19 00:00:44;;;;;;;9.52;4.60;;;9.20;27.20;;;;;;4991638;28;20489;-74
2022/04/19 00:03:11;;;;;;;6.32;3.95;;;9.50;26.00;;;;;;4994804;28;20448;-73
2022/04/19 00:05:37;;;;;;;5.55;4.18;;;9.50;25.00;;;;;;4999614;28;20486;-73
2022/04/19 00:08:04;;;;;;;7.18;4.10;;;9.60;25.30;;;;;;4995436;28;20406;-74
2022/04/19 00:10:30;;;;;;;7.45;4.50;;;9.50;25.30;;;;;;4995663;28;20406;-73
2022/04/19 00:12:57;;;;;;;7.75;4.93;;;9.60;25.30;;;;;;4994410;28;21018;-74
2022/04/19 00:15:27;;;;;;;5.60;4.05;;;9.50;25.00;;;;;;4999657;28;20407;-73
2022/04/19 00:17:52;;;;;;;5.60;4.10;;;9.50;24.30;;;;;;5021189;28;20408;-74
2022/04/19 00:20:18;;;;;;;6.00;4.03;;;9.40;23.50;;;;;;5006946;28;20401;-74
2022/04/19 00:22:43;;;;;;;5.77;3.70;;;9.20;23.80;;;;;;5000099;28;20486;-73
2022/04/19 00:25:09;;;;;;;8.00;4.40;;;9.30;25.70;;;;;;5007210;28;20428;-73
2022/04/19 00:27:35;;;;;;;6.40;4.47;;;9.30;26.20;;;;;;4993202;28;20402;-75
2022/04/19 00:30:02;;;;;;;8.73;4.47;;;9.30;25.90;;;;;;4998187;28;20437;-75
2022/04/19 00:32:27;;;;;;;6.63;4.30;;;9.20;26.20;;;;;;5012038;28;20455;-73
2022/04/19 00:34:53;;;;;;;6.60;4.32;;;9.10;25.30;;;;;;5005995;28;20412;-74
2022/04/19 00:37:19;;;;;;;6.38;4.22;;;9.10;25.50;;;;;;5006196;28;20402;-74
2022/04/19 00:39:45;;;;;;;6.70;4.00;;;8.90;26.70;;;;;;5000592;28;20406;-74
2022/04/19 00:42:10;;;;;;;7.60;4.15;;;8.70;26.30;;;;;;5006559;28;20398;-74
2022/04/19 00:44:39;;;;;;;5.85;4.07;;;8.40;27.40;;;;;;4999328;28;20509;-74
2022/04/19 00:47:10;;;;;;;8.63;4.38;;;8.40;28.20;;;;;;5006649;28;20417;-75
2022/04/19 00:49:42;;;;;;;6.70;4.55;;;8.30;28.90;;;;;;4999237;28;20406;-73
2022/04/19 00:52:08;;;;;;;6.50;4.40;;;8.10;29.70;;;;;;5011673;28;20446;-74
2022/04/19 00:54:34;;;;;;;7.60;4.60;;;8.10;30.50;;;;;;5007431;28;20412;-73
2022/04/19 00:57:01;;;;;;;5.63;4.07;;;8.20;30.50;;;;;;5003490;28;20397;-74
2022/04/19 00:59:27;;;;;;;7.00;4.13;;;8.40;30.90;;;;;;5003639;28;20461;-73
2022/04/19 01:01:52;;;;;;;5.97;4.40;;;8.70;28.00;;;;;;4991961;28;20414;-74
2022/04/19 01:04:18;;;;;;;6.65;4.03;;;8.60;27.90;;;;;;4999492;28;20396;-73
2022/04/19 01:06:45;;;;;;;8.20;4.70;;;8.80;27.70;;;;;;4995540;28;20856;-74
2022/04/19 01:09:11;;;;;;;7.50;4.00;;;8.70;27.80;;;;;;4999038;28;20412;-74
2022/04/19 01:14:22;;;;;;;7.13;4.40;;;8.60;27.90;;;;;;5003980;28;20951;-73
2022/04/19 01:16:48;;;;;;;7.20;4.47;;;8.70;28.00;;;;;;5005892;28;20493;-73
2022/04/19 01:19:15;;;;;;;5.90;4.50;;;8.70;27.00;;;;;;5017889;28;20426;-74
2022/04/19 01:21:57;;;;;;;6.28;4.60;;;8.60;28.10;;;;;;5006761;28;20416;-74
2022/04/19 01:24:23;;;;;;;9.95;5.10;;;8.50;29.10;;;;;;5010952;28;20432;-73
2022/04/19 01:26:52;;;;;;;6.53;4.50;;;8.20;30.10;;;;;;5001214;28;20444;-74
2022/04/19 01:29:18;;;;;;;5.63;4.05;;;8.00;31.20;;;;;;5005675;28;20410;-74
2022/04/19 01:31:45;;;;;;;7.47;5.27;;;8.10;31.50;;;;;;5001225;28;20435;-75
2022/04/19 01:34:12;;;;;;;10.68;4.97;;;7.90;31.70;;;;;;5010565;28;20891;-74
2022/04/19 01:36:38;;;;;;;8.10;4.85;;;7.80;32.20;;;;;;5002827;28;20406;-73
2022/04/19 01:39:05;;;;;;;8.18;4.85;;;8.10;32.30;;;;;;4997930;28;20410;-74
2022/04/19 01:41:31;;;;;;;8.18;5.32;;;8.10;32.00;;;;;;5012088;28;20504;-73
2022/04/19 01:43:57;;;;;;;9.77;4.63;;;8.10;32.70;;;;;;5005716;28;20486;-75
2022/04/19 01:46:23;;;;;;;6.97;4.95;;;8.10;32.60;;;;;;5004235;28;20387;-74
2022/04/19 01:48:50;;;;;;;10.75;5.40;;;7.90;33.60;;;;;;5001015;28;20448;-75
2022/04/19 01:51:16;;;;;;;9.50;4.82;;;7.80;35.30;;;;;;5003055;28;20401;-72
2022/04/19 01:53:42;;;;;;;6.85;4.82;;;7.60;36.50;;;;;;5000911;28;20470;-73
2022/04/19 01:56:08;;;;;;;9.82;5.57;;;7.70;37.40;;;;;;5002266;28;20436;-74
2022/04/19 01:58:34;;;;;;;8.93;4.90;;;7.50;37.70;;;;;;5007617;28;20844;-74
2022/04/19 02:00:59;;;;;;;7.50;5.00;;;7.40;38.60;;;;;;5007456;28;20407;-73
2022/04/19 02:03:25;;;;;;;7.67;4.33;;;7.40;39.10;;;;;;5008489;28;20808;-74
2022/04/19 02:05:51;;;;;;;7.10;5.03;;;7.30;39.70;;;;;;4999618;28;20400;-75
2022/04/19 02:08:16;;;;;;;7.63;4.50;;;7.20;40.80;;;;;;4999891;28;20924;-73
2022/04/19 02:10:42;;;;;;;8.88;5.07;;;7.10;41.00;;;;;;5000083;28;20430;-73
2022/04/19 02:13:07;;;;;;;8.13;4.97;;;7.10;41.60;;;;;;5007275;28;20410;-73
2022/04/19 02:15:33;;;;;;;7.70;4.47;;;7.10;41.50;;;;;;5002116;28;20497;-74
2022/04/19 02:17:59;;;;;;;7.07;4.40;;;7.40;39.30;;;;;;5005170;28;20811;-73
2022/04/19 02:20:25;;;;;;;7.03;4.50;;;7.60;36.40;;;;;;4992601;28;20403;-73
2022/04/19 02:22:51;;;;;;;7.00;4.70;;;7.50;36.80;;;;;;4995501;28;20402;-73
2022/04/19 02:25:17;;;;;;;6.20;4.00;;;7.40;37.00;;;;;;5008210;28;20405;-73
2022/04/19 02:27:43;;;;;;;5.10;3.77;;;7.60;36.40;;;;;;4995256;28;20891;-74
2022/04/19 02:30:14;;;;;;;5.65;4.30;;;7.70;36.10;;;;;;4996123;28;20436;-73
2022/04/19 02:32:44;;;;;;;7.00;4.25;;;7.90;34.90;;;;;;4996711;28;20410;-72
2022/04/19 02:35:10;;;;;;;11.43;5.10;;;7.90;34.60;;;;;;5007125;28;20467;-73
2022/04/19 02:37:36;;;;;;;12.73;5.50;;;8.10;34.40;;;;;;5004161;28;20911;-74
2022/04/19 02:40:03;;;;;;;8.98;4.70;;;8.10;34.30;;;;;;4994379;28;20414;-74
2022/04/19 02:42:28;;;;;;;12.80;4.97;;;8.10;34.80;;;;;;4993163;28;20404;-74
2022/04/19 02:44:54;;;;;;;12.10;5.50;;;8.20;34.70;;;;;;4995795;28;20422;-73
2022/04/19 02:47:19;;;;;;;9.90;4.88;;;8.20;35.00;;;;;;5008535;28;20489;-73
2022/04/19 02:49:45;;;;;;;6.78;4.30;;;8.10;35.20;;;;;;5000752;28;20413;-73
2022/04/19 02:52:11;;;;;;;7.85;5.15;;;8.10;35.10;;;;;;4991857;28;20410;-74
2022/04/19 02:54:37;;;;;;;9.65;5.75;;;8.10;35.20;;;;;;4991813;28;20430;-74
2022/04/19 02:57:03;;;;;;;10.55;5.40;;;8.00;36.30;;;;;;4992608;28;20491;-74
2022/04/19 02:59:29;;;;;;;6.15;5.03;;;8.00;36.80;;;;;;5007406;28;20412;-74
2022/04/19 03:01:55;;;;;;;8.90;4.90;;;7.90;37.50;;;;;;5003672;28;20405;-73
2022/04/19 03:04:21;;;;;;;6.87;5.03;;;7.80;38.00;;;;;;5007829;28;20410;-74
2022/04/19 03:06:48;;;;;;;8.23;4.90;;;7.60;38.80;;;;;;5005960;28;20418;-73
2022/04/19 03:09:13;;;;;;;8.88;4.90;;;7.80;37.30;;;;;;4998321;28;20421;-74
2022/04/19 03:11:39;;;;;;;9.88;5.50;;;7.80;36.60;;;;;;4995329;28;20398;-75
2022/04/19 03:14:06;;;;;;;8.32;5.25;;;7.70;36.50;;;;;;4995353;28;20398;-73
2022/04/19 03:16:32;;;;;;;8.30;5.10;;;7.80;35.50;;;;;;4991587;28;20393;-73
2022/04/19 03:18:58;;;;;;;7.57;4.88;;;7.80;34.60;;;;;;4994434;28;20414;-73
2022/04/19 03:21:24;;;;;;;10.33;4.97;;;7.70;34.30;;;;;;4997185;28;20492;-73
2022/04/19 03:29:19;;;;;;;6.80;4.38;;;7.40;35.20;;;;;;5007298;28;20478;-73
2022/04/19 03:31:45;;;;;;;7.25;4.95;;;7.20;35.70;;;;;;5004139;28;20494;-73
2022/04/19 03:34:11;;;;;;;9.90;5.10;;;7.10;37.10;;;;;;4997563;28;20400;-75
2022/04/19 03:36:36;;;;;;;5.68;4.72;;;7.10;37.50;;;;;;4994736;28;20405;-74
2022/04/19 03:39:03;;;;;;;7.43;4.70;;;7.40;37.00;;;;;;5003744;28;20874;-74
2022/04/19 03:41:28;;;;;;;10.55;5.22;;;7.50;35.90;;;;;;5009699;28;20770;-76
2022/04/19 03:43:55;;;;;;;5.87;4.87;;;7.40;36.00;;;;;;5000058;28;20387;-75
2022/04/19 03:46:20;;;;;;;7.95;4.78;;;7.20;36.30;;;;;;4994036;28;20417;-75
2022/04/19 03:48:46;;;;;;;8.00;5.10;;;7.30;37.20;;;;;;5002793;28;20403;-74
2022/04/19 03:51:12;;;;;;;10.33;5.23;;;7.40;36.20;;;;;;5001907;28;20403;-74
2022/04/19 03:53:38;;;;;;;8.07;4.47;;;7.30;36.30;;;;;;5001177;28;20398;-74
2022/04/19 03:56:03;;;;;;;4.90;4.40;;;7.30;35.50;;;;;;4993601;28;20507;-74
2022/04/19 03:58:32;;;;;;;10.52;4.55;;;7.30;35.10;;;;;;4993390;28;20787;-74
2022/04/19 04:01:00;;;;;;;7.40;4.75;;;7.20;34.80;;;;;;4994372;28;20401;-75
2022/04/19 04:03:26;;;;;;;9.75;5.00;;;7.10;36.00;;;;;;5007908;28;20409;-75
2022/04/19 04:05:52;;;;;;;11.18;5.00;;;7.20;35.30;;;;;;4995086;28;20495;-74
2022/04/19 04:08:17;;;;;;;6.13;4.50;;;7.20;35.30;;;;;;4999266;28;20490;-75
2022/04/19 04:10:43;;;;;;;8.53;4.60;;;7.30;34.90;;;;;;4996837;28;20399;-74
2022/04/19 04:13:09;;;;;;;12.20;4.67;;;7.30;34.80;;;;;;4998106;28;20824;-74
2022/04/19 04:15:35;;;;;;;8.82;5.15;;;7.10;35.70;;;;;;5003695;28;20408;-74
2022/04/19 04:18:00;;;;;;;7.90;4.90;;;6.90;37.00;;;;;;5008896;28;20400;-75
2022/04/19 04:20:26;;;;;;;7.80;5.10;;;6.90;38.10;;;;;;5008328;28;20424;-74
2022/04/19 04:22:52;;;;;;;8.90;4.87;;;7.10;37.60;;;;;;5008920;28;20824;-74
2022/04/19 04:25:17;;;;;;;6.80;4.80;;;7.10;37.70;;;;;;4998823;28;20426;-74
2022/04/19 04:27:43;;;;;;;7.47;5.20;;;7.20;37.00;;;;;;4991224;28;20815;-74
2022/04/19 04:30:09;;;;;;;12.38;5.65;;;7.30;36.80;;;;;;5001251;28;20455;-74
2022/04/19 04:32:34;;;;;;;7.88;5.13;;;7.00;37.60;;;;;;4991229;28;20389;-74
2022/04/19 04:35:00;;;;;;;8.93;5.60;;;6.90;38.80;;;;;;4996168;28;20986;-74
2022/04/19 04:37:25;;;;;;;9.43;5.30;;;7.00;37.70;;;;;;5004710;28;20424;-74
2022/04/19 04:39:51;;;;;;;8.40;4.83;;;6.90;38.10;;;;;;5014764;28;20411;-74
2022/04/19 04:42:17;;;;;;;7.40;4.60;;;7.00;37.60;;;;;;5000027;28;20911;-75
2022/04/19 04:44:42;;;;;;;5.90;4.97;;;7.10;36.60;;;;;;5001107;28;20414;-74
2022/04/19 04:49:52;;;;;;;6.63;4.63;;;7.10;36.20;;;;;;4991954;28;20422;-74
2022/04/19 04:52:20;;;;;;;5.57;4.40;;;7.30;34.90;;;;;;4997768;28;20384;-75
2022/04/19 04:54:46;;;;;;;9.35;5.20;;;7.30;35.00;;;;;;5013444;28;20420;-75
2022/04/19 04:57:12;;;;;;;7.65;4.65;;;7.10;35.40;;;;;;5002142;28;20410;-74
2022/04/19 04:59:37;;;;;;;10.23;5.67;;;7.20;35.90;;;;;;5009538;28;20905;-75
2022/04/19 05:02:04;;;;;;;8.63;5.80;;;7.30;36.00;;;;;;5011410;28;20487;-74
2022/04/19 05:04:32;;;;;;;8.60;5.70;;;7.10;36.80;;;;;;5001192;28;20423;-74
2022/04/19 05:06:58;;;;;;;9.77;5.97;;;7.00;37.80;;;;;;4993698;28;20405;-73
2022/04/19 05:09:24;;;;;;;10.68;5.28;;;7.10;38.70;;;;;;5006659;28;20406;-74
2022/04/19 05:11:52;;;;;;;11.00;5.82;;;7.40;37.20;;;;;;4997645;28;20478;-75
2022/04/19 05:14:19;;;;;;;13.30;6.50;;;7.40;37.00;;;;;;5012887;28;20392;-74
2022/04/19 05:16:45;;;;;;;8.63;5.93;;;7.50;36.80;;;;;;5000039;28;20424;-75
2022/04/19 05:19:11;;;;;;;8.35;5.57;;;7.50;37.10;;;;;;5011445;28;20412;-75
2022/04/19 05:21:39;;;;;;;11.45;6.25;;;7.70;36.00;;;;;;5016159;28;20481;-75
2022/04/19 05:24:06;;;;;;;12.55;6.38;;;7.80;35.70;;;;;;5010467;28;20423;-76
2022/04/19 05:26:32;;;;;;;11.57;6.35;;;7.90;35.00;;;;;;5001999;28;20421;-74
2022/04/19 05:28:57;;;;;;;11.02;6.50;;;7.90;35.00;;;;;;5003205;28;20406;-76
2022/04/19 05:31:24;;;;;;;12.88;7.10;;;7.90;34.80;;;;;;5006739;28;20744;-75
2022/04/19 05:33:49;;;;;;;9.18;6.07;;;7.70;35.20;;;;;;5003150;28;20584;-74
2022/04/19 05:36:15;;;;;;;8.38;5.90;;;7.70;36.00;;;;;;5002773;28;20450;-74
2022/04/19 05:38:41;;;;;;;9.68;6.40;;;7.70;35.20;;;;;;4999298;28;20412;-73
2022/04/19 05:41:06;;;;;;;9.27;6.20;;;7.80;34.50;;;;;;5007432;28;20416;-75
2022/04/19 05:43:32;;;;;;;10.63;5.37;;;7.90;34.40;;;;;;5016077;28;20499;-76
2022/04/19 05:45:58;;;;;;;10.30;5.80;;;8.20;31.70;;;;;;5007452;28;20416;-75
2022/04/19 05:48:24;;;;;;;10.20;5.70;;;8.60;30.00;;;;;;5000240;28;20414;-74
2022/04/19 05:50:50;;;;;;;10.38;5.85;;;8.80;29.70;;;;;;4996629;28;20415;-76
2022/04/19 05:53:15;;;;;;;7.80;5.60;;;8.70;29.80;;;;;;5002913;28;20413;-73
2022/04/19 05:55:41;;;;;;;12.98;6.20;;;8.90;29.10;;;;;;4997531;28;20419;-75
2022/04/19 05:58:07;;;;;;;11.13;6.15;;;9.20;27.40;;;;;;5004140;28;20470;-74
2022/04/19 06:00:32;;;;;;;10.07;5.57;;;9.30;26.70;;;;;;5007927;28;20509;-75
2022/04/19 06:05:42;;;;;;;7.65;5.40;;;9.50;25.40;;;;;;5000821;28;20456;-75
2022/04/19 06:08:08;;;;;;;12.50;6.27;;;9.60;24.40;;;;;;4996080;28;20418;-75
2022/04/19 06:10:34;;;;;;;11.93;6.70;;;9.80;24.70;;;;;;5008943;28;20410;-74
2022/04/19 06:13:00;;;;;;;9.52;5.80;;;9.90;24.40;;;;;;4999865;28;20457;-74
2022/04/19 06:15:25;;;;;;;13.90;6.60;;;10.00;24.00;;;;;;5001171;28;20811;-74
2022/04/19 06:17:51;;;;;;;9.13;5.43;;;10.10;23.50;;;;;;4999322;28;20409;-74
2022/04/19 06:20:17;;;;;;;11.37;6.10;;;10.30;23.90;;;;;;4995437;28;20418;-74
2022/04/19 06:22:44;;;;;;;13.93;6.60;;;10.40;23.00;;;;;;4997388;28;20418;-73
2022/04/19 06:25:10;;;;;;;14.93;7.00;;;10.50;22.20;;;;;;4985741;28;20418;-74
2022/04/19 06:27:35;;;;;;;14.27;6.93;;;10.50;21.20;;;;;;4993980;28;20540;-74
2022/04/19 06:30:02;;;;;;;16.90;7.77;;;10.60;21.80;;;;;;4995407;28;20430;-75
2022/04/19 06:32:27;;;;;;;12.75;7.40;;;10.70;22.70;;;;;;4991837;28;20402;-75
2022/04/19 06:34:53;;;;;;;15.93;8.17;;;10.70;21.90;;;;;;4994965;28;20417;-73
2022/04/19 06:37:20;;;;;;;17.80;8.80;;;10.80;21.70;;;;;;4996854;28;20398;-75
2022/04/19 06:39:46;;;;;;;15.70;8.25;;;10.90;21.60;;;;;;4989920;28;20406;-75
2022/04/19 06:42:11;;;;;;;15.95;7.90;;;11.00;21.50;;;;;;4993098;28;20410;-72
2022/04/19 06:44:37;;;;;;;15.20;7.72;;;11.20;21.30;;;;;;4987422;28;20797;-73
2022/04/19 06:47:03;;;;;;;16.70;9.27;;;11.40;19.10;;;;;;4987730;28;20437;-74
2022/04/19 06:49:29;;;;;;;18.15;7.78;;;11.50;18.70;;;;;;4983172;28;20394;-74
2022/04/19 06:51:54;;;;;;;16.33;8.50;;;11.70;18.10;;;;;;4991253;28;20402;-75
2022/04/19 06:54:20;;;;;;;18.43;8.73;;;11.80;17.90;;;;;;4987619;28;20444;-73
2022/04/19 06:56:46;;;;;;;16.50;8.70;;;11.90;17.80;;;;;;4987392;28;20403;-74
2022/04/19 06:59:12;;;;;;;17.15;8.27;;;12.00;17.80;;;;;;4987483;28;20476;-73
2022/04/19 07:01:40;;;;;;;15.32;8.90;;;12.00;17.80;;;;;;4997345;28;20493;-76
2022/04/19 07:04:07;;;;;;;17.48;8.73;;;12.20;17.50;;;;;;4991272;28;20406;-76
2022/04/19 07:06:33;;;;;;;16.30;8.37;;;12.40;17.30;;;;;;4991894;28;20414;-75
2022/04/19 07:08:59;;;;;;;17.10;9.23;;;12.50;16.60;;;;;;4995443;28;20406;-76
2022/04/19 07:11:25;;;;;;;16.85;9.35;;;12.70;16.30;;;;;;4989961;28;20410;-76
2022/04/19 07:13:51;;;;;;;18.25;8.60;;;12.80;15.70;;;;;;4986841;28;20406;-76
2022/04/19 07:16:16;;;;;;;16.88;9.77;;;13.00;15.40;;;;;;4994937;28;20489;-76
2022/04/19 07:18:42;;;;;;;18.40;8.60;;;13.10;14.50;;;;;;4993255;28;20982;-77
2022/04/19 07:26:40;;;;;;;11.45;7.03;;;13.60;12.20;;;;;;4996509;28;20449;-78
2022/04/19 07:29:11;;;;;;;13.60;7.85;;;13.60;12.50;;;;;;5005016;28;20445;-77
2022/04/19 07:31:38;;;;;;;13.63;8.02;;;13.80;12.20;;;;;;4991798;28;20473;-76
2022/04/19 07:34:04;;;;;;;13.80;7.75;;;13.90;10.20;;;;;;5001667;28;20775;-77
2022/04/19 07:36:30;;;;;;;13.55;8.20;;;14.10;10.60;;;;;;5003647;28;20464;-75
2022/04/19 07:38:57;;;;;;;13.43;7.60;;;14.10;10.60;;;;;;4997022;28;20418;-75
2022/04/19 07:41:26;;;;;;;10.75;7.80;;;14.20;9.10;;;;;;5004430;28;20406;-76
2022/04/19 07:43:52;;;;;;;16.73;8.00;;;14.20;9.50;;;;;;4975830;28;20411;-75
2022/04/19 07:46:18;;;;;;;12.27;7.55;;;14.30;9.40;;;;;;4997979;28;20411;-75
2022/04/19 07:48:51;;;;;;;14.97;8.27;;;14.40;9.40;;;;;;4996173;28;20417;-76
2022/04/19 07:51:18;;;;;;;11.38;7.57;;;14.40;8.60;;;;;;4988023;28;20441;-77
2022/04/19 07:53:44;;;;;;;15.25;9.50;;;14.40;8.40;;;;;;4990864;28;20403;-78
2022/04/19 07:56:10;;;;;;;12.98;7.95;;;14.50;9.30;;;;;;4990972;28;21010;-76
2022/04/19 07:58:36;;;;;;;12.83;7.43;;;14.60;9.10;;;;;;4996711;28;20401;-76
2022/04/19 08:01:01;;;;;;;12.05;7.45;;;14.70;9.10;;;;;;4989591;28;20414;-74
2022/04/19 08:03:27;;;;;;;13.18;8.10;;;14.90;8.60;;;;;;4989447;28;20460;-76
2022/04/19 08:05:54;;;;;;;11.50;7.50;;;14.90;8.70;;;;;;4988989;28;20421;-76
2022/04/19 08:08:21;;;;;;;12.40;8.05;;;14.90;7.90;;;;;;4991285;28;20405;-76
2022/04/19 08:10:47;;;;;;;15.40;7.10;;;15.00;8.80;;;;;;4989156;28;20470;-75
2022/04/19 08:13:13;;;;;;;17.63;7.47;;;15.10;7.50;;;;;;4990093;28;20406;-75
2022/04/19 08:15:38;;;;;;;14.67;8.60;;;15.20;8.20;;;;;;4992254;28;20721;-75
2022/04/19 08:18:04;;;;;;;11.90;8.40;;;15.20;9.00;;;;;;4995947;28;20510;-75
2022/04/19 08:20:30;;;;;;;15.50;7.90;;;15.40;8.90;;;;;;4998500;28;20525;-76
2022/04/19 08:22:55;;;;;;;11.40;7.60;;;15.40;7.20;;;;;;4993744;28;20494;-76
2022/04/19 08:25:22;;;;;;;11.60;7.80;;;15.40;7.40;;;;;;4997050;28;20438;-77
2022/04/19 08:27:47;;;;;;;14.93;7.90;;;15.40;6.80;;;;;;4997637;28;20801;-74
2022/04/19 08:30:18;;;;;;;15.18;7.65;;;15.40;6.50;;;;;;5010117;28;20390;-76
2022/04/19 08:32:45;;;;;;;11.85;7.68;;;15.50;7.10;;;;;;5000872;28;20430;-74
2022/04/19 08:35:12;;;;;;;12.18;7.95;;;15.60;8.30;;;;;;5006869;28;20469;-75
2022/04/19 08:37:38;;;;;;;16.37;8.23;;;15.60;6.50;;;;;;5005747;28;20422;-76
2022/04/19 08:40:09;;;;;;;11.13;8.02;;;15.60;8.50;;;;;;4996407;28;20410;-76
2022/04/19 08:42:37;;;;;;;15.50;8.50;;;15.70;6.60;;;;;;4989316;28;20424;-76
2022/04/19 08:45:04;;;;;;;13.52;8.10;;;15.70;6.20;;;;;;4987259;28;20916;-77
2022/04/19 08:47:49;;;;;;;12.75;7.72;;;15.80;7.80;;;;;;4989422;28;20402;-77
2022/04/19 08:50:18;;;;;;;13.98;8.25;;;15.90;7.30;;;;;;4989497;28;20441;-78
2022/04/19 08:52:44;;;;;;;14.80;7.70;;;15.90;8.20;;;;;;4984600;28;20419;-77
2022/04/19 08:57:55;;;;;;;12.60;7.53;;;16.10;6.90;;;;;;5000668;28;20565;-76
2022/04/19 09:00:23;;;;;;;14.32;8.00;;;16.20;6.60;;;;;;4996094;28;20445;-77
2022/04/19 09:02:53;;;;;;;10.90;7.80;;;16.20;6.70;;;;;;4997013;28;20390;-77
2022/04/19 09:05:26;;;;;;;14.50;7.88;;;16.30;6.60;;;;;;4999162;28;20504;-76
2022/04/19 09:07:54;;;;;;;13.27;7.40;;;16.30;7.00;;;;;;4994542;28;20405;-77
2022/04/19 09:10:34;;;;;;;15.95;7.00;;;16.40;7.10;;;;;;4990720;28;20421;-73
2022/04/19 09:13:06;;;;;;;11.35;7.72;;;16.50;6.30;;;;;;4988320;28;20994;-74
2022/04/19 09:15:39;;;;;;;10.60;7.60;;;16.60;6.20;;;;;;4994675;28;20505;-74
2022/04/19 09:18:12;;;;;;;17.85;8.00;;;16.70;6.60;;;;;;4991141;28;20447;-76
2022/04/19 09:20:38;;;;;;;12.05;7.90;;;16.70;7.60;;;;;;4994684;28;20933;-75
2022/04/19 09:23:08;;;;;;;13.23;7.60;;;16.70;7.80;;;;;;5007055;28;20414;-75
2022/04/19 09:25:34;;;;;;;12.50;7.70;;;16.90;6.50;;;;;;4999104;28;20420;-75
2022/04/19 09:28:02;;;;;;;13.90;7.50;;;16.90;6.80;;;;;;4996980;28;20415;-79
2022/04/19 09:30:30;;;;;;;15.85;8.50;;;16.90;6.60;;;;;;4992671;28;20824;-75
2022/04/19 09:32:59;;;;;;;12.27;8.02;;;16.90;6.10;;;;;;4990921;28;20424;-75
2022/04/19 09:35:44;;;;;;;13.32;8.60;;;16.80;6.10;;;;;;4990417;28;20417;-74
2022/04/19 09:38:11;;;;;;;15.45;8.50;;;16.80;6.80;;;;;;4991578;28;20414;-74
2022/04/19 09:40:39;;;;;;;13.13;8.10;;;16.70;7.10;;;;;;4995806;28;20481;-75
2022/04/19 09:43:10;;;;;;;14.38;7.53;;;16.90;8.00;;;;;;4998958;28;20418;-75
2022/04/19 09:46:02;;;;;;;12.45;7.50;;;17.00;6.50;;;;;;4994832;28;20417;-75
2022/04/19 09:48:42;;;;;;;12.63;7.90;;;16.80;6.70;;;;;;4996352;28;20402;-75
2022/04/19 09:51:09;;;;;;;12.50;7.80;;;16.90;6.10;;;;;;4996214;28;20407;-75
2022/04/19 09:53:47;;;;;;;12.75;7.35;;;16.90;6.70;;;;;;4994227;28;20430;-74
2022/04/19 09:56:15;;;;;;;12.60;6.60;;;17.00;7.70;;;;;;4994437;28;20455;-75
2022/04/19 09:58:43;;;;;;;11.17;6.37;;;17.10;7.00;;;;;;4995451;28;20501;-74
2022/04/19 10:08:10;;;;;;;12.97;6.40;;;17.20;6.00;;;;;;4995538;28;20421;-73
2022/04/19 10:09:37;;;;;;;17.85;7.80;;;17.50;5.60;;;;;;4990345;28;20760;-74
2022/04/19 10:12:04;;;;;;;13.65;6.80;;;17.30;5.40;;;;;;4992155;28;20436;-75
2022/04/19 10:14:31;;;;;;;11.43;6.20;;;17.20;5.60;;;;;;4996154;28;20406;-75
2022/04/19 10:16:58;;;;;;;12.68;7.22;;;17.20;5.80;;;;;;4988849;28;21518;-75
2022/04/19 10:19:25;;;;;;;12.55;7.28;;;17.20;7.40;;;;;;4992979;28;20505;-75
2022/04/19 10:21:52;;;;;;;12.07;8.32;;;17.30;5.50;;;;;;4994944;28;20403;-76
2022/04/19 10:24:18;;;;;;;12.68;7.30;;;17.40;5.80;;;;;;4995716;28;20803;-75
2022/04/19 10:26:51;;;;;;;11.63;7.68;;;17.40;6.70;;;;;;4997370;28;20415;-76
2022/04/19 10:29:30;;;;;;;10.20;7.30;;;17.40;6.20;;;;;;5006219;28;20413;-76
2022/04/19 10:32:02;;;;;;;13.13;6.88;;;17.60;6.40;;;;;;5010622;28;20444;-75
2022/04/19 10:34:35;;;;;;;10.85;6.60;;;17.70;6.00;;;;;;5006832;28;20398;-76
2022/04/19 10:37:23;;;;;;;11.38;7.07;;;17.60;5.80;;;;;;5001321;28;20397;-76
2022/04/19 10:40:05;;;;;;;13.85;7.10;;;17.60;5.30;;;;;;4990989;28;20417;-76
2022/04/19 10:42:35;;;;;;;12.18;6.30;;;17.70;5.50;;;;;;4991487;28;20410;-77
2022/04/19 10:45:12;;;;;;;8.90;5.50;;;17.70;5.80;;;;;;4989758;28;20410;-75
2022/04/19 10:47:53;;;;;;;9.68;6.45;;;17.80;5.20;;;;;;4987822;28;20410;-73
2022/04/19 10:50:28;;;;;;;12.57;6.50;;;17.70;5.80;;;;;;4999442;28;20862;-75
2022/04/19 10:53:07;;;;;;;12.50;6.10;;;17.70;5.90;;;;;;5010252;28;20412;-79
2022/04/19 10:55:37;;;;;;;13.50;6.53;;;17.80;6.40;;;;;;5003368;28;20414;-77
2022/04/19 10:58:21;;;;;;;10.60;6.43;;;17.90;6.10;;;;;;5004296;28;20415;-78
2022/04/19 11:00:54;;;;;;;9.50;6.10;;;18.00;6.90;;;;;;5013527;28;20546;-77
2022/04/19 11:03:26;;;;;;;9.07;6.00;;;18.00;5.60;;;;;;5027524;28;20404;-76
2022/04/19 11:05:53;;;;;;;10.07;6.07;;;18.10;6.40;;;;;;5014948;28;20473;-77
2022/04/19 11:08:25;;;;;;;9.70;6.30;;;18.10;6.30;;;;;;5001102;28;20570;-77
2022/04/19 11:11:04;;;;;;;10.23;6.22;;;18.20;5.50;;;;;;5008787;28;20414;-77
2022/04/19 11:13:36;;;;;;;9.43;5.30;;;18.30;6.70;;;;;;5000643;28;20446;-78
2022/04/19 11:16:13;;;;;;;7.60;5.53;;;18.40;3.80;;;;;;4998484;28;20824;-77
2022/04/19 11:18:39;;;;;;;8.45;5.38;;;18.40;6.20;;;;;;5001568;28;20510;-76
2022/04/19 11:21:07;;;;;;;10.98;5.95;;;18.40;5.00;;;;;;4992805;28;20418;-76
2022/04/19 11:23:44;;;;;;;11.02;6.00;;;18.40;6.00;;;;;;4993618;28;20893;-76
2022/04/19 11:26:42;;;;;;;8.25;5.22;;;18.40;4.70;;;;;;4993342;28;20509;-79
2022/04/19 11:29:10;;;;;;;8.27;5.60;;;18.40;5.10;;;;;;4985109;28;20426;-78
2022/04/19 11:31:45;;;;;;;8.27;4.80;;;18.40;4.20;;;;;;4992684;28;20417;-77
2022/04/19 11:34:15;;;;;;;7.15;5.18;;;18.10;4.40;;;;;;5004162;28;20433;-77
2022/04/19 11:36:41;;;;;;;9.00;5.32;;;18.00;4.70;;;;;;4987988;28;20494;-75
2022/04/19 11:39:07;;;;;;;7.40;5.47;;;18.10;6.20;;;;;;4989826;28;20406;-76
2022/04/19 11:46:50;;;;;;;8.50;5.80;;;18.50;5.60;;;;;;5003281;28;20399;-77
2022/04/19 11:49:26;;;;;;;9.63;5.53;;;18.60;5.90;;;;;;4993553;28;20517;-76
2022/04/19 11:51:54;;;;;;;8.40;5.18;;;18.60;4.00;;;;;;4993914;28;20399;-77
2022/04/19 11:54:32;;;;;;;10.05;6.00;;;18.40;3.90;;;;;;4991346;28;20397;-79
2022/04/19 11:57:00;;;;;;;5.80;4.30;;;18.50;5.80;;;;;;4986534;28;20478;-77
2022/04/19 11:59:28;;;;;;;8.90;5.20;;;18.80;4.40;;;;;;4985711;28;20410;-77
2022/04/19 12:01:54;;;;;;;10.77;4.60;;;18.80;4.50;;;;;;4993920;28;20441;-76
2022/04/19 12:04:21;;;;;;;7.13;4.50;;;18.90;3.10;;;;;;4999938;28;20405;-76
2022/04/19 12:06:48;;;;;;;8.82;5.50;;;18.90;3.60;;;;;;4989082;28;20402;-77
2022/04/19 12:09:17;;;;;;;11.57;6.38;;;18.90;5.10;;;;;;4994525;28;20496;-77
2022/04/19 12:11:43;;;;;;;10.98;6.15;;;18.90;4.60;;;;;;4990415;28;20420;-76
2022/04/19 12:14:09;;;;;;;10.20;5.95;;;19.00;2.90;;;;;;4987556;28;20433;-76
2022/04/19 12:16:39;;;;;;;8.35;5.85;;;18.90;2.80;;;;;;4999368;28;20441;-76
2022/04/19 12:19:10;;;;;;;9.43;6.10;;;18.80;3.20;;;;;;4994045;28;20462;-78
2022/04/19 12:21:43;;;;;;;9.57;6.45;;;18.90;4.10;;;;;;4987321;28;20402;-78
2022/04/19 12:24:26;;;;;;;11.20;6.80;;;19.00;5.00;;;;;;4992024;28;20422;-77
2022/04/19 12:27:08;;;;;;;11.90;5.78;;;19.20;4.00;;;;;;4990753;28;20406;-77
2022/04/19 12:29:35;;;;;;;10.73;5.97;;;19.20;2.10;;;;;;4997730;28;20406;-76
2022/04/19 12:32:02;;;;;;;10.35;6.07;;;19.20;2.60;;;;;;5005433;28;20390;-77
2022/04/19 12:34:34;;;;;;;11.80;5.65;;;19.40;5.10;;;;;;4997275;28;20424;-76
2022/04/19 12:37:12;;;;;;;8.50;5.45;;;19.30;2.30;;;;;;4996164;28;20463;-77
2022/04/19 12:39:39;;;;;;;8.43;5.20;;;19.30;3.10;;;;;;4990125;28;20412;-76
2022/04/19 12:42:13;;;;;;;15.15;5.85;;;19.50;2.80;;;;;;4990627;28;20424;-77
2022/04/19 12:44:40;;;;;;;9.90;6.45;;;19.70;1.80;;;;;;4992695;28;20776;-77
2022/04/19 12:47:16;;;;;;;14.68;6.97;;;19.60;4.50;;;;;;4984057;28;20423;-78
2022/04/19 12:49:46;;;;;;;14.00;6.32;;;19.70;4.30;;;;;;4995390;28;20776;-78
2022/04/19 12:52:12;;;;;;;9.40;6.30;;;19.90;3.60;;;;;;4998622;28;20409;-76
2022/04/19 12:54:40;;;;;;;11.90;6.17;;;19.90;4.10;;;;;;5004591;28;20453;-77
2022/04/19 12:57:14;;;;;;;8.88;5.47;;;19.90;2.80;;;;;;5008840;28;20933;-78
2022/04/19 12:59:43;;;;;;;7.90;5.15;;;19.90;1.20;;;;;;5002132;28;20403;-77
2022/04/19 13:02:08;;;;;;;10.43;6.07;;;19.80;1.50;;;;;;5008631;28;20475;-77
2022/04/19 13:04:35;;;;;;;9.40;5.90;;;19.70;3.20;;;;;;4994915;28;20427;-77
2022/04/19 13:12:30;;;;;;;10.13;5.00;;;19.80;2.20;;;;;;5001742;28;20464;-76
2022/04/19 13:14:57;;;;;;;9.30;4.20;;;19.90;1.90;;;;;;5004797;28;20506;-78
2022/04/19 13:17:25;;;;;;;7.38;3.90;;;20.10;1.00;;;;;;5007819;28;20439;-76
2022/04/19 13:19:51;;;;;;;8.82;4.47;;;20.20;1.00;;;;;;4997893;28;20383;-75
2022/04/19 13:22:17;;;;;;;9.27;5.20;;;20.20;1.00;;;;;;4996933;28;20823;-78
2022/04/19 13:24:43;;;;;;;8.25;5.10;;;20.10;1.60;;;;;;5000192;28;20419;-76
2022/04/19 13:27:11;;;;;;;9.82;5.70;;;20.00;1.20;;;;;;5003594;28;20397;-76
2022/04/19 13:29:38;;;;;;;8.00;5.00;;;20.30;3.50;;;;;;5004099;28;20393;-77
2022/04/19 13:32:05;;;;;;;8.52;5.10;;;21.10;1.20;;;;;;4997137;28;20499;-77